sensor_id;sensor_type;location;lat;lon;timestamp;P1;durP1;ratioP1;P2;durP2;ratioP2
9809;SDS011;4944;52.514;13.192;2024-01-06T00:02:11;34.23;;;21.97;;
9809;SDS011;4944;52.514;13.192;2024-01-06T00:04:39;33.00;;;20.80;;
9809;SDS011;4944;52.514;13.192;2024-01-06T00:07:06;28.93;;;20.37;;
9809;SDS011;4944;52.514;13.192;2024-01-06T00:09:34;35.60;;;21.10;;
9809;SDS011;4944;52.514;13.192;2024-01-06T00:12:01;33.60;;;20.50;;
9809;SDS011;4944;52.514;13.192;2024-01-06T00:14:28;33.57;;;21.53;;
9809;SDS011;4944;52.514;13.192;2024-01-06T00:16:55;29.77;;;20.40;;
9809;SDS011;4944;52.514;13.192;2024-01-06T00:19:21;33.73;;;21.40;;
9809;SDS011;4944;52.514;13.192;2024-01-06T00:21:50;32.53;;;21.27;;
9809;SDS011;4944;52.514;13.192;2024-01-06T00:24:17;32.77;;;21.70;;
9809;SDS011;4944;52.514;13.192;2024-01-06T00:26:44;29.47;;;19.93;;
9809;SDS011;4944;52.514;13.192;2024-01-06T00:29:10;33.63;;;21.80;;
9809;SDS011;4944;52.514;13.192;2024-01-06T00:31:37;33.20;;;21.67;;
9809;SDS011;4944;52.514;13.192;2024-01-06T00:34:04;32.40;;;20.73;;
9809;SDS011;4944;52.514;13.192;2024-01-06T00:36:31;33.10;;;20.90;;
9809;SDS011;4944;52.514;13.192;2024-01-06T00:38:59;33.80;;;21.33;;
9809;SDS011;4944;52.514;13.192;2024-01-06T00:41:26;33.90;;;21.13;;
9809;SDS011;4944;52.514;13.192;2024-01-06T00:43:53;32.50;;;20.23;;
9809;SDS011;4944;52.514;13.192;2024-01-06T00:46:20;33.30;;;20.80;;
9809;SDS011;4944;52.514;13.192;2024-01-06T00:48:47;28.97;;;19.90;;
9809;SDS011;4944;52.514;13.192;2024-01-06T00:51:14;30.00;;;20.83;;
9809;SDS011;4944;52.514;13.192;2024-01-06T00:53:41;34.07;;;22.43;;
9809;SDS011;4944;52.514;13.192;2024-01-06T00:56:09;29.57;;;20.50;;
9809;SDS011;4944;52.514;13.192;2024-01-06T00:58:36;30.17;;;19.83;;
9809;SDS011;4944;52.514;13.192;2024-01-06T01:01:03;30.83;;;20.90;;
9809;SDS011;4944;52.514;13.192;2024-01-06T01:03:29;30.97;;;20.57;;
9809;SDS011;4944;52.514;13.192;2024-01-06T01:05:56;30.93;;;20.93;;
9809;SDS011;4944;52.514;13.192;2024-01-06T01:08:23;30.13;;;19.30;;
9809;SDS011;4944;52.514;13.192;2024-01-06T01:10:50;31.10;;;20.13;;
9809;SDS011;4944;52.514;13.192;2024-01-06T01:13:18;30.33;;;19.40;;
9809;SDS011;4944;52.514;13.192;2024-01-06T01:15:45;31.80;;;19.00;;
9809;SDS011;4944;52.514;13.192;2024-01-06T01:18:12;29.93;;;19.30;;
9809;SDS011;4944;52.514;13.192;2024-01-06T01:20:39;31.40;;;19.77;;
9809;SDS011;4944;52.514;13.192;2024-01-06T01:23:07;28.57;;;19.10;;
9809;SDS011;4944;52.514;13.192;2024-01-06T01:25:34;30.60;;;20.00;;
9809;SDS011;4944;52.514;13.192;2024-01-06T01:28:01;30.43;;;18.40;;
9809;SDS011;4944;52.514;13.192;2024-01-06T01:30:29;28.77;;;18.57;;
9809;SDS011;4944;52.514;13.192;2024-01-06T01:32:57;32.27;;;20.37;;
9809;SDS011;4944;52.514;13.192;2024-01-06T01:35:24;29.77;;;18.57;;
9809;SDS011;4944;52.514;13.192;2024-01-06T01:37:51;30.33;;;19.23;;
9809;SDS011;4944;52.514;13.192;2024-01-06T01:40:17;27.80;;;18.10;;
9809;SDS011;4944;52.514;13.192;2024-01-06T01:42:44;26.40;;;18.43;;
9809;SDS011;4944;52.514;13.192;2024-01-06T01:45:11;28.40;;;18.73;;
9809;SDS011;4944;52.514;13.192;2024-01-06T01:47:40;28.37;;;18.13;;
9809;SDS011;4944;52.514;13.192;2024-01-06T01:50:07;27.73;;;18.33;;
9809;SDS011;4944;52.514;13.192;2024-01-06T01:52:35;27.63;;;18.10;;
9809;SDS011;4944;52.514;13.192;2024-01-06T01:55:03;32.27;;;18.80;;
9809;SDS011;4944;52.514;13.192;2024-01-06T01:57:30;29.30;;;17.90;;
9809;SDS011;4944;52.514;13.192;2024-01-06T01:59:58;26.40;;;18.03;;
9809;SDS011;4944;52.514;13.192;2024-01-06T02:02:28;27.67;;;17.10;;
9809;SDS011;4944;52.514;13.192;2024-01-06T02:04:57;25.63;;;17.57;;
9809;SDS011;4944;52.514;13.192;2024-01-06T02:07:24;30.50;;;17.80;;
9809;SDS011;4944;52.514;13.192;2024-01-06T02:09:50;24.40;;;17.10;;
9809;SDS011;4944;52.514;13.192;2024-01-06T02:12:20;28.07;;;18.23;;
9809;SDS011;4944;52.514;13.192;2024-01-06T02:14:47;28.17;;;18.53;;
9809;SDS011;4944;52.514;13.192;2024-01-06T02:17:13;29.40;;;17.93;;
9809;SDS011;4944;52.514;13.192;2024-01-06T02:19:40;29.10;;;17.70;;
9809;SDS011;4944;52.514;13.192;2024-01-06T02:22:09;23.93;;;16.27;;
9809;SDS011;4944;52.514;13.192;2024-01-06T02:24:35;27.73;;;17.77;;
9809;SDS011;4944;52.514;13.192;2024-01-06T02:27:02;25.87;;;17.43;;
9809;SDS011;4944;52.514;13.192;2024-01-06T02:29:30;30.17;;;18.27;;
9809;SDS011;4944;52.514;13.192;2024-01-06T02:31:57;28.30;;;17.63;;
9809;SDS011;4944;52.514;13.192;2024-01-06T02:34:24;24.73;;;17.07;;
9809;SDS011;4944;52.514;13.192;2024-01-06T02:36:51;23.83;;;16.93;;
9809;SDS011;4944;52.514;13.192;2024-01-06T02:39:19;24.87;;;16.37;;
9809;SDS011;4944;52.514;13.192;2024-01-06T02:41:48;22.23;;;16.43;;
9809;SDS011;4944;52.514;13.192;2024-01-06T02:44:15;26.80;;;17.70;;
9809;SDS011;4944;52.514;13.192;2024-01-06T02:46:42;24.90;;;17.13;;
9809;SDS011;4944;52.514;13.192;2024-01-06T02:49:09;26.63;;;17.33;;
9809;SDS011;4944;52.514;13.192;2024-01-06T02:51:36;25.43;;;17.57;;
9809;SDS011;4944;52.514;13.192;2024-01-06T02:54:03;27.63;;;17.77;;
9809;SDS011;4944;52.514;13.192;2024-01-06T02:56:31;25.33;;;17.33;;
9809;SDS011;4944;52.514;13.192;2024-01-06T02:58:58;25.23;;;16.43;;
9809;SDS011;4944;52.514;13.192;2024-01-06T03:01:25;25.33;;;16.47;;
9809;SDS011;4944;52.514;13.192;2024-01-06T03:03:51;25.60;;;17.00;;
9809;SDS011;4944;52.514;13.192;2024-01-06T03:06:18;24.27;;;15.97;;
9809;SDS011;4944;52.514;13.192;2024-01-06T03:08:45;26.63;;;17.20;;
9809;SDS011;4944;52.514;13.192;2024-01-06T03:11:12;25.43;;;16.50;;
9809;SDS011;4944;52.514;13.192;2024-01-06T03:13:41;28.67;;;18.07;;
9809;SDS011;4944;52.514;13.192;2024-01-06T03:16:07;25.60;;;17.23;;
9809;SDS011;4944;52.514;13.192;2024-01-06T03:18:37;29.23;;;17.53;;
9809;SDS011;4944;52.514;13.192;2024-01-06T03:21:04;28.03;;;17.80;;
9809;SDS011;4944;52.514;13.192;2024-01-06T03:23:31;23.17;;;16.33;;
9809;SDS011;4944;52.514;13.192;2024-01-06T03:25:57;24.80;;;16.93;;
9809;SDS011;4944;52.514;13.192;2024-01-06T03:28:24;23.30;;;16.03;;
9809;SDS011;4944;52.514;13.192;2024-01-06T03:30:52;27.60;;;15.80;;
9809;SDS011;4944;52.514;13.192;2024-01-06T03:33:19;24.60;;;16.93;;
9809;SDS011;4944;52.514;13.192;2024-01-06T03:35:46;26.53;;;16.63;;
9809;SDS011;4944;52.514;13.192;2024-01-06T03:38:13;26.60;;;16.47;;
9809;SDS011;4944;52.514;13.192;2024-01-06T03:40:40;27.50;;;16.97;;
9809;SDS011;4944;52.514;13.192;2024-01-06T03:43:07;25.17;;;16.00;;
9809;SDS011;4944;52.514;13.192;2024-01-06T03:45:34;27.40;;;16.67;;
9809;SDS011;4944;52.514;13.192;2024-01-06T03:48:02;23.43;;;16.47;;
9809;SDS011;4944;52.514;13.192;2024-01-06T03:50:29;27.13;;;16.27;;
9809;SDS011;4944;52.514;13.192;2024-01-06T03:52:56;27.23;;;17.23;;
9809;SDS011;4944;52.514;13.192;2024-01-06T03:55:23;24.17;;;16.30;;
9809;SDS011;4944;52.514;13.192;2024-01-06T03:57:50;27.50;;;16.27;;
9809;SDS011;4944;52.514;13.192;2024-01-06T04:00:17;24.67;;;15.97;;
9809;SDS011;4944;52.514;13.192;2024-01-06T04:02:44;25.43;;;16.37;;
9809;SDS011;4944;52.514;13.192;2024-01-06T04:05:13;25.57;;;16.70;;
9809;SDS011;4944;52.514;13.192;2024-01-06T04:07:40;26.13;;;16.03;;
9809;SDS011;4944;52.514;13.192;2024-01-06T04:10:07;24.90;;;16.80;;
9809;SDS011;4944;52.514;13.192;2024-01-06T04:12:34;26.27;;;16.87;;
9809;SDS011;4944;52.514;13.192;2024-01-06T04:15:01;25.93;;;16.43;;
9809;SDS011;4944;52.514;13.192;2024-01-06T04:17:28;26.53;;;16.77;;
9809;SDS011;4944;52.514;13.192;2024-01-06T04:19:55;29.83;;;16.47;;
9809;SDS011;4944;52.514;13.192;2024-01-06T04:22:23;25.53;;;15.43;;
9809;SDS011;4944;52.514;13.192;2024-01-06T04:24:50;28.83;;;16.17;;
9809;SDS011;4944;52.514;13.192;2024-01-06T04:27:17;25.57;;;16.33;;
9809;SDS011;4944;52.514;13.192;2024-01-06T04:29:47;26.53;;;16.80;;
9809;SDS011;4944;52.514;13.192;2024-01-06T04:32:18;24.23;;;15.70;;
9809;SDS011;4944;52.514;13.192;2024-01-06T04:34:45;26.67;;;16.40;;
9809;SDS011;4944;52.514;13.192;2024-01-06T04:37:11;29.17;;;17.33;;
9809;SDS011;4944;52.514;13.192;2024-01-06T04:39:40;28.60;;;17.43;;
9809;SDS011;4944;52.514;13.192;2024-01-06T04:42:06;31.07;;;17.03;;
9809;SDS011;4944;52.514;13.192;2024-01-06T04:44:33;25.70;;;15.77;;
9809;SDS011;4944;52.514;13.192;2024-01-06T04:47:00;28.53;;;16.30;;
9809;SDS011;4944;52.514;13.192;2024-01-06T04:49:27;27.20;;;17.03;;
9809;SDS011;4944;52.514;13.192;2024-01-06T04:51:54;25.57;;;16.63;;
9809;SDS011;4944;52.514;13.192;2024-01-06T04:54:21;23.60;;;16.63;;
9809;SDS011;4944;52.514;13.192;2024-01-06T04:56:49;27.57;;;16.83;;
9809;SDS011;4944;52.514;13.192;2024-01-06T04:59:16;29.63;;;16.77;;
9809;SDS011;4944;52.514;13.192;2024-01-06T05:01:43;25.97;;;16.57;;
9809;SDS011;4944;52.514;13.192;2024-01-06T05:04:10;27.90;;;16.67;;
9809;SDS011;4944;52.514;13.192;2024-01-06T05:06:37;26.90;;;17.40;;
9809;SDS011;4944;52.514;13.192;2024-01-06T05:09:04;28.87;;;17.87;;
9809;SDS011;4944;52.514;13.192;2024-01-06T05:11:31;28.30;;;17.10;;
9809;SDS011;4944;52.514;13.192;2024-01-06T05:13:59;27.20;;;17.67;;
9809;SDS011;4944;52.514;13.192;2024-01-06T05:16:26;25.97;;;17.43;;
9809;SDS011;4944;52.514;13.192;2024-01-06T05:18:53;27.00;;;17.60;;
9809;SDS011;4944;52.514;13.192;2024-01-06T05:21:20;31.40;;;18.67;;
9809;SDS011;4944;52.514;13.192;2024-01-06T05:23:47;28.20;;;17.50;;
9809;SDS011;4944;52.514;13.192;2024-01-06T05:26:14;26.93;;;17.43;;
9809;SDS011;4944;52.514;13.192;2024-01-06T05:28:41;29.47;;;18.27;;
9809;SDS011;4944;52.514;13.192;2024-01-06T05:31:09;31.43;;;18.27;;
9809;SDS011;4944;52.514;13.192;2024-01-06T05:33:36;29.83;;;17.40;;
9809;SDS011;4944;52.514;13.192;2024-01-06T05:36:03;30.50;;;18.23;;
9809;SDS011;4944;52.514;13.192;2024-01-06T05:38:30;30.87;;;18.37;;
9809;SDS011;4944;52.514;13.192;2024-01-06T05:40:57;30.13;;;17.83;;
9809;SDS011;4944;52.514;13.192;2024-01-06T05:43:24;29.03;;;18.27;;
9809;SDS011;4944;52.514;13.192;2024-01-06T05:45:52;30.17;;;18.10;;
9809;SDS011;4944;52.514;13.192;2024-01-06T05:48:20;29.50;;;18.00;;
9809;SDS011;4944;52.514;13.192;2024-01-06T05:50:47;29.37;;;18.27;;
9809;SDS011;4944;52.514;13.192;2024-01-06T05:53:13;30.60;;;18.33;;
9809;SDS011;4944;52.514;13.192;2024-01-06T05:55:43;31.57;;;18.23;;
9809;SDS011;4944;52.514;13.192;2024-01-06T05:58:10;28.50;;;18.60;;
9809;SDS011;4944;52.514;13.192;2024-01-06T06:00:37;29.23;;;17.97;;
9809;SDS011;4944;52.514;13.192;2024-01-06T06:03:05;28.07;;;17.97;;
9809;SDS011;4944;52.514;13.192;2024-01-06T06:05:34;27.83;;;18.33;;
9809;SDS011;4944;52.514;13.192;2024-01-06T06:08:01;32.20;;;18.67;;
9809;SDS011;4944;52.514;13.192;2024-01-06T06:10:28;33.13;;;18.80;;
9809;SDS011;4944;52.514;13.192;2024-01-06T06:13:06;29.20;;;18.50;;
9809;SDS011;4944;52.514;13.192;2024-01-06T06:15:35;31.37;;;18.43;;
9809;SDS011;4944;52.514;13.192;2024-01-06T06:18:02;33.13;;;19.67;;
9809;SDS011;4944;52.514;13.192;2024-01-06T06:20:30;33.90;;;20.33;;
9809;SDS011;4944;52.514;13.192;2024-01-06T06:22:58;32.23;;;19.07;;
9809;SDS011;4944;52.514;13.192;2024-01-06T06:25:25;28.93;;;19.73;;
9809;SDS011;4944;52.514;13.192;2024-01-06T06:27:52;29.67;;;19.13;;
9809;SDS011;4944;52.514;13.192;2024-01-06T06:30:19;38.23;;;20.07;;
9809;SDS011;4944;52.514;13.192;2024-01-06T06:32:46;30.30;;;19.27;;
9809;SDS011;4944;52.514;13.192;2024-01-06T06:35:12;34.03;;;20.17;;
9809;SDS011;4944;52.514;13.192;2024-01-06T06:37:39;30.07;;;18.77;;
9809;SDS011;4944;52.514;13.192;2024-01-06T06:40:08;29.37;;;19.40;;
9809;SDS011;4944;52.514;13.192;2024-01-06T06:42:35;35.40;;;18.20;;
9809;SDS011;4944;52.514;13.192;2024-01-06T06:45:02;30.13;;;18.73;;
9809;SDS011;4944;52.514;13.192;2024-01-06T06:47:30;31.57;;;18.73;;
9809;SDS011;4944;52.514;13.192;2024-01-06T06:49:57;35.13;;;20.10;;
9809;SDS011;4944;52.514;13.192;2024-01-06T06:52:24;33.77;;;19.00;;
9809;SDS011;4944;52.514;13.192;2024-01-06T06:54:50;25.93;;;17.50;;
9809;SDS011;4944;52.514;13.192;2024-01-06T06:57:19;33.37;;;19.20;;
9809;SDS011;4944;52.514;13.192;2024-01-06T06:59:46;27.13;;;18.43;;
9809;SDS011;4944;52.514;13.192;2024-01-06T07:02:13;30.17;;;17.43;;
9809;SDS011;4944;52.514;13.192;2024-01-06T07:04:40;29.87;;;18.03;;
9809;SDS011;4944;52.514;13.192;2024-01-06T07:07:07;28.67;;;17.70;;
9809;SDS011;4944;52.514;13.192;2024-01-06T07:09:34;29.60;;;18.47;;
9809;SDS011;4944;52.514;13.192;2024-01-06T07:12:01;29.27;;;18.93;;
9809;SDS011;4944;52.514;13.192;2024-01-06T07:14:29;28.77;;;17.73;;
9809;SDS011;4944;52.514;13.192;2024-01-06T07:16:56;29.53;;;18.07;;
9809;SDS011;4944;52.514;13.192;2024-01-06T07:19:23;31.73;;;18.17;;
9809;SDS011;4944;52.514;13.192;2024-01-06T07:21:50;28.23;;;17.07;;
9809;SDS011;4944;52.514;13.192;2024-01-06T07:24:17;31.13;;;18.67;;
9809;SDS011;4944;52.514;13.192;2024-01-06T07:26:44;31.57;;;18.13;;
9809;SDS011;4944;52.514;13.192;2024-01-06T07:29:11;33.43;;;18.37;;
9809;SDS011;4944;52.514;13.192;2024-01-06T07:31:39;31.13;;;18.40;;
9809;SDS011;4944;52.514;13.192;2024-01-06T07:34:06;29.03;;;17.97;;
9809;SDS011;4944;52.514;13.192;2024-01-06T07:36:33;26.47;;;17.10;;
9809;SDS011;4944;52.514;13.192;2024-01-06T07:38:59;30.40;;;18.13;;
9809;SDS011;4944;52.514;13.192;2024-01-06T07:41:28;27.77;;;17.77;;
9809;SDS011;4944;52.514;13.192;2024-01-06T07:43:55;34.83;;;19.37;;
9809;SDS011;4944;52.514;13.192;2024-01-06T07:46:22;34.57;;;18.13;;
9809;SDS011;4944;52.514;13.192;2024-01-06T07:48:51;29.63;;;18.17;;
9809;SDS011;4944;52.514;13.192;2024-01-06T07:51:18;30.63;;;18.17;;
9809;SDS011;4944;52.514;13.192;2024-01-06T07:53:44;30.83;;;18.63;;
9809;SDS011;4944;52.514;13.192;2024-01-06T07:56:11;30.27;;;18.10;;
9809;SDS011;4944;52.514;13.192;2024-01-06T07:58:38;30.63;;;18.13;;
9809;SDS011;4944;52.514;13.192;2024-01-06T08:01:05;32.37;;;18.37;;
9809;SDS011;4944;52.514;13.192;2024-01-06T08:03:32;32.33;;;18.27;;
9809;SDS011;4944;52.514;13.192;2024-01-06T08:06:01;28.80;;;17.67;;
9809;SDS011;4944;52.514;13.192;2024-01-06T08:08:28;29.47;;;17.37;;
9809;SDS011;4944;52.514;13.192;2024-01-06T08:10:55;28.50;;;17.73;;
9809;SDS011;4944;52.514;13.192;2024-01-06T08:13:22;31.47;;;18.53;;
9809;SDS011;4944;52.514;13.192;2024-01-06T08:15:49;27.53;;;17.17;;
9809;SDS011;4944;52.514;13.192;2024-01-06T08:18:16;30.13;;;17.80;;
9809;SDS011;4944;52.514;13.192;2024-01-06T08:20:43;30.80;;;17.70;;
9809;SDS011;4944;52.514;13.192;2024-01-06T08:23:11;30.30;;;18.37;;
9809;SDS011;4944;52.514;13.192;2024-01-06T08:25:38;29.00;;;17.93;;
9809;SDS011;4944;52.514;13.192;2024-01-06T08:28:05;32.73;;;18.33;;
9809;SDS011;4944;52.514;13.192;2024-01-06T08:30:32;30.87;;;17.97;;
9809;SDS011;4944;52.514;13.192;2024-01-06T08:32:59;27.57;;;17.90;;
9809;SDS011;4944;52.514;13.192;2024-01-06T08:35:26;33.63;;;19.10;;
9809;SDS011;4944;52.514;13.192;2024-01-06T08:37:53;29.57;;;17.47;;
9809;SDS011;4944;52.514;13.192;2024-01-06T08:40:22;27.87;;;17.30;;
9809;SDS011;4944;52.514;13.192;2024-01-06T08:42:49;31.47;;;17.97;;
9809;SDS011;4944;52.514;13.192;2024-01-06T08:45:15;36.70;;;19.13;;
9809;SDS011;4944;52.514;13.192;2024-01-06T08:47:42;36.03;;;18.73;;
9809;SDS011;4944;52.514;13.192;2024-01-06T08:50:09;31.07;;;18.17;;
9809;SDS011;4944;52.514;13.192;2024-01-06T08:52:36;31.87;;;18.50;;
9809;SDS011;4944;52.514;13.192;2024-01-06T08:55:03;33.43;;;17.67;;
9809;SDS011;4944;52.514;13.192;2024-01-06T08:57:32;33.17;;;19.27;;
9809;SDS011;4944;52.514;13.192;2024-01-06T08:59:59;28.27;;;16.87;;
9809;SDS011;4944;52.514;13.192;2024-01-06T09:02:26;29.83;;;17.33;;
9809;SDS011;4944;52.514;13.192;2024-01-06T09:04:53;30.17;;;18.67;;
9809;SDS011;4944;52.514;13.192;2024-01-06T09:07:20;31.67;;;18.20;;
9809;SDS011;4944;52.514;13.192;2024-01-06T09:09:47;27.63;;;16.53;;
9809;SDS011;4944;52.514;13.192;2024-01-06T09:12:14;29.07;;;17.53;;
9809;SDS011;4944;52.514;13.192;2024-01-06T09:14:42;28.37;;;17.57;;
9809;SDS011;4944;52.514;13.192;2024-01-06T09:17:09;28.90;;;17.70;;
9809;SDS011;4944;52.514;13.192;2024-01-06T09:19:36;30.53;;;18.03;;
9809;SDS011;4944;52.514;13.192;2024-01-06T09:22:03;29.60;;;17.60;;
9809;SDS011;4944;52.514;13.192;2024-01-06T09:24:30;27.67;;;16.93;;
9809;SDS011;4944;52.514;13.192;2024-01-06T09:26:58;30.77;;;18.17;;
9809;SDS011;4944;52.514;13.192;2024-01-06T09:29:25;29.47;;;17.17;;
9809;SDS011;4944;52.514;13.192;2024-01-06T09:31:53;29.93;;;17.23;;
9809;SDS011;4944;52.514;13.192;2024-01-06T09:34:20;30.70;;;17.37;;
9809;SDS011;4944;52.514;13.192;2024-01-06T09:36:47;30.33;;;18.13;;
9809;SDS011;4944;52.514;13.192;2024-01-06T09:39:14;31.00;;;17.40;;
9809;SDS011;4944;52.514;13.192;2024-01-06T09:41:43;26.97;;;17.20;;
9809;SDS011;4944;52.514;13.192;2024-01-06T09:44:10;27.13;;;17.33;;
9809;SDS011;4944;52.514;13.192;2024-01-06T09:46:37;28.20;;;17.40;;
9809;SDS011;4944;52.514;13.192;2024-01-06T09:49:07;26.37;;;16.73;;
9809;SDS011;4944;52.514;13.192;2024-01-06T09:51:35;26.80;;;16.80;;
9809;SDS011;4944;52.514;13.192;2024-01-06T09:54:07;26.50;;;16.30;;
9809;SDS011;4944;52.514;13.192;2024-01-06T09:56:35;28.00;;;17.23;;
9809;SDS011;4944;52.514;13.192;2024-01-06T09:59:03;27.73;;;17.67;;
9809;SDS011;4944;52.514;13.192;2024-01-06T10:01:30;28.30;;;16.77;;
9809;SDS011;4944;52.514;13.192;2024-01-06T10:03:57;30.87;;;17.60;;
9809;SDS011;4944;52.514;13.192;2024-01-06T10:06:25;27.50;;;16.30;;
9809;SDS011;4944;52.514;13.192;2024-01-06T10:08:52;30.60;;;18.00;;
9809;SDS011;4944;52.514;13.192;2024-01-06T10:11:20;33.50;;;19.33;;
9809;SDS011;4944;52.514;13.192;2024-01-06T10:13:48;28.87;;;18.60;;
9809;SDS011;4944;52.514;13.192;2024-01-06T10:16:16;33.17;;;18.87;;
9809;SDS011;4944;52.514;13.192;2024-01-06T10:18:43;29.93;;;18.47;;
9809;SDS011;4944;52.514;13.192;2024-01-06T10:21:10;28.83;;;18.43;;
9809;SDS011;4944;52.514;13.192;2024-01-06T10:23:40;28.13;;;17.30;;
9809;SDS011;4944;52.514;13.192;2024-01-06T10:26:08;29.53;;;18.03;;
9809;SDS011;4944;52.514;13.192;2024-01-06T10:28:38;30.20;;;18.47;;
9809;SDS011;4944;52.514;13.192;2024-01-06T10:31:07;30.30;;;18.00;;
9809;SDS011;4944;52.514;13.192;2024-01-06T10:33:34;28.90;;;17.93;;
9809;SDS011;4944;52.514;13.192;2024-01-06T10:36:02;26.17;;;17.33;;
9809;SDS011;4944;52.514;13.192;2024-01-06T10:38:30;27.07;;;17.13;;
9809;SDS011;4944;52.514;13.192;2024-01-06T10:40:58;25.20;;;17.37;;
9809;SDS011;4944;52.514;13.192;2024-01-06T10:43:28;28.60;;;17.23;;
9809;SDS011;4944;52.514;13.192;2024-01-06T10:45:56;27.53;;;17.40;;
9809;SDS011;4944;52.514;13.192;2024-01-06T10:48:24;27.73;;;17.63;;
9809;SDS011;4944;52.514;13.192;2024-01-06T10:50:51;25.43;;;18.03;;
9809;SDS011;4944;52.514;13.192;2024-01-06T10:53:20;27.70;;;17.57;;
9809;SDS011;4944;52.514;13.192;2024-01-06T10:55:49;25.87;;;16.70;;
9809;SDS011;4944;52.514;13.192;2024-01-06T10:58:18;26.47;;;17.30;;
9809;SDS011;4944;52.514;13.192;2024-01-06T11:00:46;26.23;;;17.83;;
9809;SDS011;4944;52.514;13.192;2024-01-06T11:03:13;29.03;;;17.10;;
9809;SDS011;4944;52.514;13.192;2024-01-06T11:05:41;26.23;;;17.87;;
9809;SDS011;4944;52.514;13.192;2024-01-06T11:08:08;27.37;;;17.77;;
9809;SDS011;4944;52.514;13.192;2024-01-06T11:10:37;28.73;;;17.90;;
9809;SDS011;4944;52.514;13.192;2024-01-06T11:13:07;28.23;;;16.40;;
9809;SDS011;4944;52.514;13.192;2024-01-06T11:15:41;21.97;;;15.60;;
9809;SDS011;4944;52.514;13.192;2024-01-06T11:18:09;26.20;;;16.40;;
9809;SDS011;4944;52.514;13.192;2024-01-06T11:21:14;24.23;;;16.20;;
9809;SDS011;4944;52.514;13.192;2024-01-06T11:23:51;25.83;;;16.47;;
9809;SDS011;4944;52.514;13.192;2024-01-06T11:26:38;24.70;;;16.63;;
9809;SDS011;4944;52.514;13.192;2024-01-06T11:29:05;19.93;;;15.30;;
9809;SDS011;4944;52.514;13.192;2024-01-06T11:31:35;27.23;;;16.87;;
9809;SDS011;4944;52.514;13.192;2024-01-06T11:34:12;24.80;;;17.30;;
9809;SDS011;4944;52.514;13.192;2024-01-06T11:36:42;24.07;;;16.13;;
9809;SDS011;4944;52.514;13.192;2024-01-06T11:42:01;20.93;;;15.33;;
9809;SDS011;4944;52.514;13.192;2024-01-06T11:44:29;24.23;;;15.97;;
9809;SDS011;4944;52.514;13.192;2024-01-06T11:47:01;20.77;;;15.13;;
9809;SDS011;4944;52.514;13.192;2024-01-06T11:49:30;24.00;;;15.03;;
9809;SDS011;4944;52.514;13.192;2024-01-06T11:51:57;21.70;;;15.53;;
9809;SDS011;4944;52.514;13.192;2024-01-06T11:54:24;22.07;;;15.03;;
9809;SDS011;4944;52.514;13.192;2024-01-06T11:56:51;20.43;;;14.73;;
9809;SDS011;4944;52.514;13.192;2024-01-06T11:59:19;23.30;;;15.27;;
9809;SDS011;4944;52.514;13.192;2024-01-06T12:01:45;22.63;;;14.63;;
9809;SDS011;4944;52.514;13.192;2024-01-06T12:04:14;20.43;;;14.87;;
9809;SDS011;4944;52.514;13.192;2024-01-06T12:06:41;24.00;;;15.47;;
9809;SDS011;4944;52.514;13.192;2024-01-06T12:09:10;21.37;;;15.50;;
9809;SDS011;4944;52.514;13.192;2024-01-06T12:11:40;19.53;;;14.77;;
9809;SDS011;4944;52.514;13.192;2024-01-06T12:14:10;24.30;;;17.37;;
9809;SDS011;4944;52.514;13.192;2024-01-06T12:16:37;24.27;;;17.13;;
9809;SDS011;4944;52.514;13.192;2024-01-06T12:19:04;20.27;;;15.77;;
9809;SDS011;4944;52.514;13.192;2024-01-06T12:21:32;25.23;;;16.80;;
9809;SDS011;4944;52.514;13.192;2024-01-06T12:24:18;24.83;;;17.17;;
9809;SDS011;4944;52.514;13.192;2024-01-06T12:26:46;23.23;;;16.23;;
9809;SDS011;4944;52.514;13.192;2024-01-06T12:29:13;20.80;;;15.37;;
9809;SDS011;4944;52.514;13.192;2024-01-06T12:31:40;22.67;;;16.37;;
9809;SDS011;4944;52.514;13.192;2024-01-06T12:34:08;23.83;;;17.07;;
9809;SDS011;4944;52.514;13.192;2024-01-06T12:36:37;21.20;;;15.70;;
9809;SDS011;4944;52.514;13.192;2024-01-06T12:39:05;21.87;;;15.10;;
9809;SDS011;4944;52.514;13.192;2024-01-06T12:41:35;21.97;;;15.43;;
9809;SDS011;4944;52.514;13.192;2024-01-06T12:44:04;22.40;;;15.07;;
9809;SDS011;4944;52.514;13.192;2024-01-06T12:46:31;22.60;;;15.80;;
9809;SDS011;4944;52.514;13.192;2024-01-06T12:48:57;26.17;;;15.47;;
9809;SDS011;4944;52.514;13.192;2024-01-06T12:51:24;20.50;;;14.50;;
9809;SDS011;4944;52.514;13.192;2024-01-06T12:53:53;22.33;;;15.43;;
9809;SDS011;4944;52.514;13.192;2024-01-06T12:56:20;22.67;;;15.53;;
9809;SDS011;4944;52.514;13.192;2024-01-06T12:58:47;20.93;;;15.03;;
9809;SDS011;4944;52.514;13.192;2024-01-06T13:01:14;21.80;;;15.70;;
9809;SDS011;4944;52.514;13.192;2024-01-06T13:03:41;24.10;;;15.87;;
9809;SDS011;4944;52.514;13.192;2024-01-06T13:06:08;21.83;;;14.77;;
9809;SDS011;4944;52.514;13.192;2024-01-06T13:08:35;21.23;;;15.47;;
9809;SDS011;4944;52.514;13.192;2024-01-06T13:11:04;22.47;;;14.80;;
9809;SDS011;4944;52.514;13.192;2024-01-06T13:13:31;20.07;;;14.87;;
9809;SDS011;4944;52.514;13.192;2024-01-06T13:15:59;21.07;;;13.97;;
9809;SDS011;4944;52.514;13.192;2024-01-06T13:18:26;19.63;;;14.13;;
9809;SDS011;4944;52.514;13.192;2024-01-06T13:20:54;20.40;;;14.70;;
9809;SDS011;4944;52.514;13.192;2024-01-06T13:23:21;21.60;;;14.80;;
9809;SDS011;4944;52.514;13.192;2024-01-06T13:25:48;22.47;;;14.57;;
9809;SDS011;4944;52.514;13.192;2024-01-06T13:28:17;19.87;;;14.47;;
9809;SDS011;4944;52.514;13.192;2024-01-06T13:30:44;21.57;;;15.20;;
9809;SDS011;4944;52.514;13.192;2024-01-06T13:33:11;23.30;;;15.77;;
9809;SDS011;4944;52.514;13.192;2024-01-06T13:35:38;20.63;;;14.10;;
9809;SDS011;4944;52.514;13.192;2024-01-06T13:38:05;21.33;;;14.53;;
9809;SDS011;4944;52.514;13.192;2024-01-06T13:40:34;21.80;;;14.40;;
9809;SDS011;4944;52.514;13.192;2024-01-06T13:43:01;20.67;;;14.60;;
9809;SDS011;4944;52.514;13.192;2024-01-06T13:45:31;20.73;;;14.67;;
9809;SDS011;4944;52.514;13.192;2024-01-06T13:47:58;24.03;;;14.83;;
9809;SDS011;4944;52.514;13.192;2024-01-06T13:50:25;20.83;;;14.53;;
9809;SDS011;4944;52.514;13.192;2024-01-06T13:52:52;18.77;;;13.80;;
9809;SDS011;4944;52.514;13.192;2024-01-06T13:55:19;21.43;;;14.53;;
9809;SDS011;4944;52.514;13.192;2024-01-06T13:57:46;19.43;;;14.53;;
9809;SDS011;4944;52.514;13.192;2024-01-06T14:00:14;18.57;;;14.03;;
9809;SDS011;4944;52.514;13.192;2024-01-06T14:02:45;20.40;;;13.37;;
9809;SDS011;4944;52.514;13.192;2024-01-06T14:05:12;21.77;;;13.60;;
9809;SDS011;4944;52.514;13.192;2024-01-06T14:07:40;18.53;;;13.40;;
9809;SDS011;4944;52.514;13.192;2024-01-06T14:10:10;17.80;;;12.77;;
9809;SDS011;4944;52.514;13.192;2024-01-06T14:12:37;15.60;;;12.03;;
9809;SDS011;4944;52.514;13.192;2024-01-06T14:15:06;17.63;;;13.07;;
9809;SDS011;4944;52.514;13.192;2024-01-06T14:17:34;18.40;;;12.50;;
9809;SDS011;4944;52.514;13.192;2024-01-06T14:20:02;19.30;;;12.03;;
9809;SDS011;4944;52.514;13.192;2024-01-06T14:22:30;19.43;;;12.23;;
9809;SDS011;4944;52.514;13.192;2024-01-06T14:24:57;21.43;;;13.40;;
9809;SDS011;4944;52.514;13.192;2024-01-06T14:27:24;18.60;;;13.03;;
9809;SDS011;4944;52.514;13.192;2024-01-06T14:29:51;17.93;;;12.57;;
9809;SDS011;4944;52.514;13.192;2024-01-06T14:32:20;17.67;;;12.53;;
9809;SDS011;4944;52.514;13.192;2024-01-06T14:34:49;17.83;;;12.80;;
9809;SDS011;4944;52.514;13.192;2024-01-06T14:37:18;16.60;;;12.03;;
9809;SDS011;4944;52.514;13.192;2024-01-06T14:39:45;16.37;;;11.63;;